createdAt,value
2022-10-22T00:00:48.103Z,100673.50
2022-10-22T00:03:15.591Z,100676.16
2022-10-22T00:05:43.762Z,100680.72
2022-10-22T00:08:12.504Z,100675.59
2022-10-22T00:10:40.046Z,100680.84
2022-10-22T00:13:07.743Z,100676.56
2022-10-22T00:15:35.202Z,100691.34
2022-10-22T00:18:02.685Z,100689.72
2022-10-22T00:20:30.177Z,100677.66
2022-10-22T00:22:57.734Z,100676.84
2022-10-22T00:25:26.505Z,100672.66
2022-10-22T00:27:53.967Z,100665.75
2022-10-22T00:30:21.643Z,100674.59
2022-10-22T00:32:49.245Z,100673.66
2022-10-22T00:35:17.276Z,100663.38
2022-10-22T00:37:44.930Z,100660.63
2022-10-22T00:40:13.497Z,100664.22
2022-10-22T00:42:42.786Z,100653.84
2022-10-22T00:45:23.527Z,100646.91
2022-10-22T00:47:56.813Z,100640.81
2022-10-22T00:50:28.869Z,100649.69
2022-10-22T00:52:58.371Z,100655.91
2022-10-22T00:55:27.808Z,100658.53
2022-10-22T00:57:58.953Z,100670.09
2022-10-22T01:00:27.150Z,100673.56
2022-10-22T01:02:55.739Z,100668.31
2022-10-22T01:05:24.030Z,100673.56
2022-10-22T01:07:54.083Z,100685.03
2022-10-22T01:10:44.834Z,100692.22
2022-10-22T01:13:24.096Z,100687.94
2022-10-22T01:16:00.332Z,100687.22
2022-10-22T01:18:36.830Z,100687.22
2022-10-22T01:21:15.217Z,100681.28
2022-10-22T01:24:05.840Z,100690.94
2022-10-22T01:26:44.981Z,100677.94
2022-10-22T01:29:19.925Z,100660.53
2022-10-22T01:31:52.632Z,100661.47
2022-10-22T01:34:21.429Z,100654.44
2022-10-22T01:36:52.305Z,100651.81
2022-10-22T01:39:21.307Z,100642.25
2022-10-22T01:41:48.980Z,100656.34
2022-10-22T01:44:29.460Z,100660.78
2022-10-22T01:47:08.630Z,100666.16
2022-10-22T01:50:05.489Z,100664.38
2022-10-22T01:52:50.282Z,100659.97
2022-10-22T01:55:27.040Z,100656.47
2022-10-22T01:58:08.007Z,100667.97
2022-10-22T02:00:39.488Z,100671.28
2022-10-22T02:03:17.419Z,100678.22
2022-10-22T02:05:51.577Z,100673.91
2022-10-22T02:08:21.826Z,100679.03
2022-10-22T02:10:51.567Z,100679.03
2022-10-22T02:13:24.183Z,100679.03
2022-10-22T02:15:54.324Z,100673.78
2022-10-22T02:18:26.905Z,100673.78
2022-10-22T02:20:54.974Z,100681.69
2022-10-22T02:23:23.325Z,100687.75
2022-10-22T02:25:56.868Z,100687.88
2022-10-22T02:28:28.301Z,100676.41
2022-10-22T02:31:07.285Z,100666.84
2022-10-22T02:33:39.606Z,100667.72
2022-10-22T02:36:09.315Z,100673.91
2022-10-22T02:38:37.981Z,100675.59
2022-10-22T02:41:06.041Z,100674.75
2022-10-22T02:43:41.401Z,100668.78
2022-10-22T02:46:10.939Z,100658.53
2022-10-22T02:48:38.859Z,100668.22
2022-10-22T02:51:06.948Z,100664.91
2022-10-22T02:53:34.654Z,100670.16
2022-10-22T02:56:02.392Z,100684.13
2022-10-22T02:58:30.124Z,100692.13
2022-10-22T03:00:57.817Z,100694.88
2022-10-22T03:03:27.146Z,100690.72
2022-10-22T03:05:54.782Z,100685.63
2022-10-22T03:08:22.539Z,100692.53
2022-10-22T03:10:50.326Z,100685.47
2022-10-22T03:13:18.057Z,100668.88
2022-10-22T03:15:45.822Z,100673.19
2022-10-22T03:18:13.900Z,100672.31
2022-10-22T03:20:42.993Z,100665.28
2022-10-22T03:23:11.175Z,100666.25
2022-10-22T03:25:44.045Z,100661.00
2022-10-22T03:28:14.471Z,100667.06
2022-10-22T03:30:42.164Z,100669.69
2022-10-22T03:33:09.788Z,100669.69
2022-10-22T03:35:43.203Z,100662.81
2022-10-22T03:38:13.079Z,100677.59
2022-10-22T03:40:41.583Z,100683.13
2022-10-22T03:43:09.647Z,100685.75
2022-10-22T03:48:06.961Z,100683.38
2022-10-22T03:50:34.801Z,100682.66
2022-10-22T03:53:02.675Z,100687.09
2022-10-22T03:55:31.766Z,100681.00
2022-10-22T03:57:59.464Z,100678.38
2022-10-22T04:00:27.198Z,100684.47
2022-10-22T04:02:54.942Z,100689.59
2022-10-22T04:05:22.715Z,100687.91
2022-10-22T04:07:50.490Z,100683.75
2022-10-22T04:10:18.410Z,100691.78
2022-10-22T04:12:49.707Z,100695.47
2022-10-22T04:15:17.946Z,100708.59
2022-10-22T04:17:45.598Z,100710.41
2022-10-22T04:20:13.335Z,100709.59
2022-10-22T04:22:40.920Z,100717.47
2022-10-22T04:25:09.089Z,100714.97
2022-10-22T04:27:37.286Z,100726.69
2022-10-22T04:30:07.743Z,100727.78
2022-10-22T04:32:35.596Z,100719.22
2022-10-22T04:35:03.426Z,100713.22
2022-10-22T04:37:32.985Z,100717.66
2022-10-22T04:40:00.761Z,100709.91
2022-10-22T04:42:28.397Z,100705.34
2022-10-22T04:44:56.074Z,100714.06
2022-10-22T04:47:25.146Z,100706.19
2022-10-22T04:49:52.868Z,100708.56
2022-10-22T04:52:20.716Z,100710.22
2022-10-22T04:54:48.601Z,100716.59
2022-10-22T04:57:16.370Z,100721.72
2022-10-22T04:59:44.085Z,100720.16
2022-10-22T05:08:32.629Z,100704.16
2022-10-22T05:11:06.245Z,100712.03
2022-10-22T05:13:48.587Z,100722.53
2022-10-22T05:16:16.918Z,100711.19
2022-10-22T05:18:45.502Z,100720.84
2022-10-22T05:21:16.244Z,100720.97
2022-10-22T05:23:46.289Z,100724.47
2022-10-22T05:26:16.103Z,100726.34
2022-10-22T05:28:44.582Z,100722.09
2022-10-22T05:31:14.713Z,100725.66
2022-10-22T05:33:43.755Z,100732.00
2022-10-22T05:36:14.567Z,100719.97
2022-10-22T05:38:42.302Z,100720.91
2022-10-22T05:41:13.529Z,100713.16
2022-10-22T05:43:41.193Z,100714.13
2022-10-22T05:46:11.887Z,100719.50
2022-10-22T05:48:40.188Z,100728.34
2022-10-22T05:51:10.270Z,100723.22
2022-10-22T05:53:39.696Z,100730.25
2022-10-22T05:56:10.873Z,100740.75
2022-10-22T05:58:40.599Z,100741.00
2022-10-22T06:01:10.104Z,100739.34
2022-10-22T06:03:37.962Z,100755.81
2022-10-22T06:06:15.268Z,100755.94
2022-10-22T06:08:44.998Z,100748.75
2022-10-22T06:11:12.789Z,100749.72
2022-10-22T06:13:42.195Z,100743.63
2022-10-22T06:16:09.701Z,100752.22
2022-10-22T06:18:37.729Z,100746.97
2022-10-22T06:21:07.399Z,100739.94
2022-10-22T06:23:35.313Z,100751.16
2022-10-22T06:26:03.459Z,100754.59
2022-10-22T06:28:31.859Z,100755.56
2022-10-22T06:31:01.816Z,100755.56
2022-10-22T06:33:32.576Z,100761.66
2022-10-22T06:36:07.573Z,100774.06
2022-10-22T06:38:35.730Z,100772.41
2022-10-22T06:41:04.795Z,100788.16
2022-10-22T06:43:32.559Z,100794.22
2022-10-22T06:46:09.877Z,100795.19
2022-10-22T06:48:46.912Z,100794.34
2022-10-22T06:51:17.226Z,100791.72
2022-10-22T06:53:44.975Z,100804.84
2022-10-22T06:56:34.185Z,100797.09
2022-10-22T06:59:08.756Z,100801.53
2022-10-22T07:01:38.758Z,100803.44
2022-10-22T07:04:07.011Z,100805.25
2022-10-22T07:06:35.007Z,100806.88
2022-10-22T07:09:03.716Z,100798.19
2022-10-22T07:11:38.889Z,100798.19
2022-10-22T07:14:06.494Z,100797.09
2022-10-22T07:16:34.519Z,100804.97
2022-10-22T07:19:05.864Z,100807.59
2022-10-22T07:21:36.327Z,100812.72
2022-10-22T07:24:03.946Z,100815.22
2022-10-22T07:26:32.748Z,100821.22
2022-10-22T07:29:02.019Z,100810.59
2022-10-22T07:31:29.892Z,100814.84
2022-10-22T07:33:57.619Z,100813.91
2022-10-22T07:36:26.559Z,100819.03
2022-10-22T07:38:57.043Z,100821.53
2022-10-22T07:41:25.236Z,100820.56
2022-10-22T07:43:53.330Z,100823.94
2022-10-22T07:46:21.557Z,100835.00
2022-10-22T07:48:51.577Z,100832.00
2022-10-22T07:51:19.716Z,100841.28
2022-10-22T07:53:48.767Z,100842.72
2022-10-22T07:56:17.872Z,100846.63
2022-10-22T07:58:45.693Z,100850.94
2022-10-22T08:01:13.270Z,100851.50
2022-10-22T08:03:40.843Z,100862.03
2022-10-22T08:06:08.823Z,100859.16
2022-10-22T08:08:36.519Z,100851.97
2022-10-22T08:11:05.616Z,100863.03
2022-10-22T08:13:33.418Z,100866.13
2022-10-22T08:16:02.225Z,100867.69
2022-10-22T08:18:33.456Z,100874.34
2022-10-22T08:21:07.645Z,100875.88
2022-10-22T08:23:35.387Z,100872.16
2022-10-22T08:26:06.862Z,100879.22
2022-10-22T08:28:38.991Z,100871.22
2022-10-22T08:34:05.917Z,100880.50
2022-10-22T08:36:34.511Z,100875.22
2022-10-22T08:39:08.636Z,100879.53
2022-10-22T08:41:45.573Z,100881.94
2022-10-22T08:44:47.740Z,100890.53
2022-10-22T08:47:28.768Z,100886.97
2022-10-22T08:49:57.228Z,100901.63
2022-10-22T08:52:24.814Z,100889.34
2022-10-22T08:54:54.973Z,100897.09
2022-10-22T08:57:45.645Z,100897.91
2022-10-22T09:00:25.011Z,100895.75
2022-10-22T09:03:03.603Z,100899.91
2022-10-22T09:05:41.181Z,100893.44
2022-10-22T09:08:11.781Z,100902.75
2022-10-22T09:10:44.958Z,100905.94
2022-10-22T09:13:16.936Z,100893.50
2022-10-22T09:15:47.306Z,100903.75
2022-10-22T09:18:31.815Z,100904.19
2022-10-22T09:21:05.414Z,100899.38
2022-10-22T09:23:39.925Z,100905.94
2022-10-22T09:26:15.282Z,100906.38
2022-10-22T09:28:44.279Z,100921.75
2022-10-22T09:31:15.429Z,100929.38
2022-10-22T09:33:51.625Z,100914.16
2022-10-22T09:36:23.728Z,100933.19
2022-10-22T09:38:53.252Z,100926.81
2022-10-22T09:41:29.692Z,100924.75
2022-10-22T09:43:57.492Z,100927.84
2022-10-22T09:46:32.577Z,100932.69
2022-10-22T09:49:05.586Z,100931.47
2022-10-22T09:51:51.123Z,100939.09
2022-10-22T09:54:22.276Z,100932.72
2022-10-22T09:56:54.714Z,100941.31
2022-10-22T09:59:29.279Z,100945.38
2022-10-22T10:02:19.801Z,100945.94
2022-10-22T10:04:56.913Z,100941.09
2022-10-22T10:07:26.576Z,100943.47
2022-10-22T10:09:55.586Z,100942.16
2022-10-22T10:12:36.387Z,100937.16
2022-10-22T10:15:18.667Z,100933.72
2022-10-22T10:17:56.831Z,100933.19
2022-10-22T10:20:35.439Z,100934.44
2022-10-22T10:23:09.588Z,100936.66
2022-10-22T10:25:43.783Z,100938.06
2022-10-22T10:28:22.887Z,100937.63
2022-10-22T10:30:58.993Z,100941.69
2022-10-22T10:33:36.610Z,100939.59
2022-10-22T10:36:11.343Z,100935.88
2022-10-22T10:38:48.976Z,100939.31
2022-10-22T10:41:30.850Z,100941.28
2022-10-22T10:44:15.332Z,100942.91
2022-10-22T10:46:51.403Z,100937.66
2022-10-22T10:49:25.296Z,100942.66
2022-10-22T10:52:02.444Z,100939.88
2022-10-22T10:54:43.138Z,100929.88
2022-10-22T10:57:20.552Z,100941.00
2022-10-22T11:00:01.168Z,100936.44
2022-10-22T11:02:49.114Z,100936.03
2022-10-22T11:05:29.206Z,100943.50
2022-10-22T11:08:01.044Z,100937.53
2022-10-22T11:10:32.945Z,100944.88
2022-10-22T11:13:08.796Z,100937.66
2022-10-22T11:15:41.475Z,100949.41
2022-10-22T11:18:16.823Z,100947.09
2022-10-22T11:21:04.386Z,100953.47
2022-10-22T11:23:39.938Z,100943.41
2022-10-22T11:26:14.931Z,100949.28
2022-10-22T11:28:46.765Z,100950.09
2022-10-22T11:31:16.798Z,100948.13
2022-10-22T11:33:54.596Z,100944.31
2022-10-22T11:39:05.052Z,100935.09
2022-10-22T11:41:35.440Z,100942.38
2022-10-22T11:44:11.168Z,100951.53
2022-10-22T11:46:47.027Z,100951.13
2022-10-22T11:49:23.280Z,100954.13
2022-10-22T11:51:53.311Z,100955.63
2022-10-22T11:54:42.338Z,100961.44
2022-10-22T11:57:19.877Z,100957.28
2022-10-22T11:59:51.850Z,100951.34
2022-10-22T12:02:26.849Z,100952.97
2022-10-22T12:04:56.825Z,100949.41
2022-10-22T12:07:36.436Z,100950.81
2022-10-22T12:10:07.424Z,100954.97
2022-10-22T12:12:40.143Z,100950.75
2022-10-22T12:15:25.355Z,100939.81
2022-10-22T12:18:16.194Z,100941.16
2022-10-22T12:20:44.026Z,100941.84
2022-10-22T12:23:15.032Z,100952.53
2022-10-22T12:25:43.363Z,100947.63
2022-10-22T12:28:14.320Z,100955.88
2022-10-22T12:30:42.103Z,100954.66
2022-10-22T12:33:22.712Z,100949.06
2022-10-22T12:35:55.490Z,100956.97
2022-10-22T12:38:25.646Z,100966.16
2022-10-22T12:40:57.683Z,100955.41
2022-10-22T12:43:29.909Z,100961.44
2022-10-22T12:46:00.196Z,100961.47
2022-10-22T12:48:31.264Z,100955.97
2022-10-22T12:51:02.244Z,100948.16
2022-10-22T12:53:35.130Z,100952.00
2022-10-22T12:56:05.831Z,100958.69
2022-10-22T12:58:39.985Z,100955.34
2022-10-22T13:01:08.066Z,100951.44
2022-10-22T13:03:38.939Z,100948.22
2022-10-22T13:06:24.877Z,100958.56
2022-10-22T13:09:14.843Z,100956.56
2022-10-22T13:11:49.677Z,100952.09
2022-10-22T13:14:22.456Z,100950.88
2022-10-22T13:17:12.182Z,100958.56
2022-10-22T13:19:46.401Z,100956.50
2022-10-22T13:22:30.491Z,100951.59
2022-10-22T13:25:01.103Z,100955.91
2022-10-22T13:27:29.772Z,100955.19
2022-10-22T13:29:58.047Z,100953.63
2022-10-22T13:32:31.899Z,100957.66
2022-10-22T13:35:01.637Z,100958.00
2022-10-22T13:37:33.990Z,100970.59
2022-10-22T13:40:04.089Z,100967.19
2022-10-22T13:42:33.192Z,100962.19
2022-10-22T13:45:00.721Z,100957.97
2022-10-22T13:47:30.507Z,100958.72
2022-10-22T13:50:01.512Z,100955.59
2022-10-22T13:52:35.662Z,100964.25
2022-10-22T13:55:14.305Z,100966.78
2022-10-22T13:57:41.927Z,100962.59
2022-10-22T14:00:13.105Z,100961.91
2022-10-22T14:02:41.489Z,100972.28
2022-10-22T14:05:11.205Z,100972.19
2022-10-22T14:07:40.054Z,100967.63
2022-10-22T14:10:17.359Z,100972.38
2022-10-22T14:12:49.287Z,100975.56
2022-10-22T14:15:21.116Z,100979.47
2022-10-22T14:17:52.774Z,100979.31
2022-10-22T14:20:23.250Z,100977.81
2022-10-22T14:22:52.031Z,100972.38
2022-10-22T14:25:22.812Z,100974.88
2022-10-22T14:27:50.791Z,100985.50
2022-10-22T14:30:25.448Z,100986.47
2022-10-22T14:32:53.572Z,100976.56
2022-10-22T14:35:23.522Z,100986.16
2022-10-22T14:37:51.876Z,100981.53
2022-10-22T14:40:21.734Z,100988.31
2022-10-22T14:42:49.984Z,100993.44
2022-10-22T14:45:21.326Z,100985.28
2022-10-22T14:47:49.474Z,100995.56
2022-10-22T14:50:18.103Z,100987.44
2022-10-22T14:52:46.512Z,100994.91
2022-10-22T14:55:16.846Z,100999.00
2022-10-22T14:57:47.353Z,101000.34
2022-10-22T15:00:17.680Z,101006.94
2022-10-22T15:02:46.046Z,101006.59
2022-10-22T15:05:13.993Z,100999.97
2022-10-22T15:07:41.793Z,101003.94
2022-10-22T15:10:10.732Z,101003.44
2022-10-22T15:12:38.298Z,101002.94
2022-10-22T15:15:08.600Z,101004.22
2022-10-22T15:17:37.201Z,101013.34
2022-10-22T15:20:06.295Z,101008.50
2022-10-22T15:22:35.943Z,101005.50
2022-10-22T15:25:04.662Z,101009.47
2022-10-22T15:27:32.142Z,101002.16
2022-10-22T15:29:59.857Z,101023.81
2022-10-22T15:32:29.681Z,101022.44
2022-10-22T15:34:57.629Z,101020.28
2022-10-22T15:37:25.139Z,101025.19
2022-10-22T15:39:52.607Z,101017.75
2022-10-22T15:42:20.239Z,101019.84
2022-10-22T15:44:48.208Z,101023.97
2022-10-22T15:47:15.821Z,101020.81
2022-10-22T15:49:45.892Z,101025.75
2022-10-22T15:52:13.385Z,101027.03
2022-10-22T15:54:42.424Z,101020.53
2022-10-22T15:57:10.720Z,101019.34
2022-10-22T15:59:38.344Z,101026.91
2022-10-22T16:02:07.281Z,101028.53
2022-10-22T16:04:34.936Z,101033.59
2022-10-22T16:07:03.705Z,101032.53
2022-10-22T16:09:31.949Z,101034.13
2022-10-22T16:11:59.429Z,101028.59
2022-10-22T16:14:28.684Z,101022.25
2022-10-22T16:16:57.051Z,101027.47
2022-10-22T16:19:25.435Z,101028.06
2022-10-22T16:21:56.153Z,101033.13
2022-10-22T16:24:25.147Z,101043.31
2022-10-22T16:26:53.206Z,101040.28
2022-10-22T16:29:21.037Z,101042.00
2022-10-22T16:31:48.644Z,101047.75
2022-10-22T16:34:16.934Z,101047.31
2022-10-22T16:36:45.068Z,101052.22
2022-10-22T16:39:12.598Z,101053.81
2022-10-22T16:41:41.358Z,101051.06
2022-10-22T16:44:10.730Z,101047.34
2022-10-22T16:46:38.842Z,101053.34
2022-10-22T16:49:07.514Z,101054.88
2022-10-22T16:51:35.549Z,101062.41
2022-10-22T16:54:05.539Z,101061.16
2022-10-22T16:56:36.602Z,101059.09
2022-10-22T16:59:05.419Z,101063.00
2022-10-22T17:01:36.735Z,101073.16
2022-10-22T17:04:07.312Z,101079.69
2022-10-22T17:06:35.155Z,101078.59
2022-10-22T17:09:03.553Z,101078.34
2022-10-22T17:11:36.312Z,101083.88
2022-10-22T17:14:07.798Z,101091.25
2022-10-22T17:16:35.356Z,101089.84
2022-10-22T17:19:04.987Z,101101.69
2022-10-22T17:21:33.900Z,101094.31
2022-10-22T17:24:01.673Z,101097.22
2022-10-22T17:26:30.386Z,101106.41
2022-10-22T17:28:58.376Z,101111.41
2022-10-22T17:31:29.992Z,101104.88
2022-10-22T17:33:59.840Z,101116.81
2022-10-22T17:36:31.806Z,101111.13
2022-10-22T17:39:06.525Z,101128.97
2022-10-22T17:41:35.616Z,101124.13
2022-10-22T17:44:05.749Z,101125.34
2022-10-22T17:46:34.665Z,101123.84
2022-10-22T17:49:06.911Z,101128.38
2022-10-22T17:51:34.682Z,101129.50
2022-10-22T17:54:03.554Z,101136.84
2022-10-22T17:56:33.688Z,101137.94
2022-10-22T17:59:01.253Z,101134.63
2022-10-22T18:01:30.838Z,101134.88
2022-10-22T18:04:02.612Z,101128.78
2022-10-22T18:06:30.442Z,101147.38
2022-10-22T18:08:58.307Z,101131.13
2022-10-22T18:11:28.303Z,101128.63
2022-10-22T18:13:58.380Z,101140.94
2022-10-22T18:16:26.889Z,101134.16
2022-10-22T18:18:56.389Z,101140.38
2022-10-22T18:21:29.675Z,101136.09
2022-10-22T18:24:00.220Z,101132.59
2022-10-22T18:26:27.904Z,101130.22
2022-10-22T18:28:55.714Z,101137.44
2022-10-22T18:31:25.228Z,101133.97
2022-10-22T18:36:24.055Z,101146.47
2022-10-22T18:38:55.127Z,101136.19
2022-10-22T18:41:23.408Z,101151.16
2022-10-22T18:43:51.492Z,101148.63
2022-10-22T18:46:22.150Z,101144.34
2022-10-22T18:48:49.945Z,101143.38
2022-10-22T18:51:17.676Z,101149.63
2022-10-22T18:53:58.887Z,101144.34
2022-10-22T18:56:34.193Z,101141.28
2022-10-22T18:59:02.148Z,101151.09
2022-10-22T19:01:30.479Z,101145.84
2022-10-22T19:03:58.348Z,101142.38
2022-10-22T19:06:30.502Z,101146.00
2022-10-22T19:09:00.222Z,101146.81
2022-10-22T19:11:28.162Z,101157.34
2022-10-22T19:13:57.682Z,101148.63
2022-10-22T19:16:28.748Z,101158.44
2022-10-22T19:19:04.038Z,101160.25
2022-10-22T19:21:32.226Z,101150.66
2022-10-22T19:24:01.236Z,101157.88
2022-10-22T19:26:30.568Z,101166.59
2022-10-22T19:29:00.921Z,101164.13
2022-10-22T19:31:31.692Z,101165.91
2022-10-22T19:34:01.017Z,101171.19
2022-10-22T19:36:30.241Z,101171.31
2022-10-22T19:39:04.154Z,101167.03
2022-10-22T19:41:34.068Z,101175.06
2022-10-22T19:44:03.714Z,101176.81
2022-10-22T19:46:33.613Z,101182.09
2022-10-22T19:49:03.028Z,101179.59
2022-10-22T19:51:33.507Z,101184.03
2022-10-22T19:54:03.191Z,101186.78
2022-10-22T19:56:32.065Z,101180.84
2022-10-22T19:59:00.164Z,101188.03
2022-10-22T20:01:31.952Z,101188.16
2022-10-22T20:04:01.482Z,101188.16
2022-10-22T20:06:29.826Z,101194.50
2022-10-22T20:08:58.421Z,101201.72
2022-10-22T20:11:29.622Z,101199.34
2022-10-22T20:13:59.099Z,101202.09
2022-10-22T20:16:31.574Z,101209.28
2022-10-22T20:19:03.595Z,101208.59
2022-10-22T20:21:31.777Z,101221.03
2022-10-22T20:24:00.161Z,101212.56
2022-10-22T20:26:29.150Z,101212.78
2022-10-22T20:28:57.323Z,101220.81
2022-10-22T20:31:27.101Z,101217.47
2022-10-22T20:33:57.235Z,101216.75
2022-10-22T20:36:25.726Z,101225.63
2022-10-22T20:38:53.384Z,101228.38
2022-10-22T20:41:23.149Z,101232.09
2022-10-22T20:43:52.837Z,101236.66
2022-10-22T20:46:23.074Z,101235.94
2022-10-22T20:48:52.525Z,101236.06
2022-10-22T20:51:21.950Z,101234.41
2022-10-22T20:53:50.218Z,101241.44
2022-10-22T20:56:18.747Z,101241.59
2022-10-22T20:58:48.496Z,101240.75
2022-10-22T21:01:21.507Z,101235.47
2022-10-22T21:03:50.786Z,101241.72
2022-10-22T21:06:20.871Z,101249.63
2022-10-22T21:08:49.799Z,101250.44
2022-10-22T21:11:17.462Z,101251.28
2022-10-22T21:13:45.458Z,101246.13
2022-10-22T21:16:14.512Z,101259.19
2022-10-22T21:18:42.008Z,101259.88
2022-10-22T21:21:10.561Z,101261.56
2022-10-22T21:23:38.074Z,101255.59
2022-10-22T21:26:07.628Z,101260.75
2022-10-22T21:28:36.054Z,101263.38
2022-10-22T21:31:04.792Z,101263.25
2022-10-22T21:33:32.645Z,101264.91
2022-10-22T21:36:00.281Z,101263.13
2022-10-22T21:38:27.842Z,101269.22
2022-10-22T21:40:56.639Z,101267.53
2022-10-22T21:43:25.400Z,101270.03
2022-10-22T21:45:52.869Z,101268.28
2022-10-22T21:48:20.346Z,101283.09
2022-10-22T21:50:49.792Z,101279.63
2022-10-22T21:53:17.198Z,101278.69
2022-10-22T21:55:44.635Z,101287.41
2022-10-22T21:58:12.060Z,101283.09
2022-10-22T22:00:40.877Z,101287.53
2022-10-22T22:03:08.456Z,101284.91
2022-10-22T22:05:36.145Z,101291.00
2022-10-22T22:08:03.684Z,101291.00
2022-10-22T22:10:31.146Z,101291.00
2022-10-22T22:12:58.746Z,101286.59
2022-10-22T22:15:26.212Z,101287.53
2022-10-22T22:17:54.994Z,101281.44
2022-10-22T22:20:22.469Z,101277.13
2022-10-22T22:22:50.044Z,101274.50
2022-10-22T22:25:17.688Z,101272.69
2022-10-22T22:27:45.291Z,101276.28
2022-10-22T22:30:13.265Z,101269.22
2022-10-22T22:32:42.408Z,101282.38
2022-10-22T22:35:11.759Z,101272.81
2022-10-22T22:37:39.360Z,101269.47
2022-10-22T22:40:08.090Z,101273.91
2022-10-22T22:42:35.577Z,101271.28
2022-10-22T22:45:03.006Z,101275.69
2022-10-22T22:47:30.860Z,101270.41
2022-10-22T22:49:58.321Z,101269.72
2022-10-22T22:52:27.066Z,101260.16
2022-10-22T22:54:54.563Z,101272.59
2022-10-22T22:57:21.997Z,101273.69
2022-10-22T22:59:51.172Z,101276.44
2022-10-22T23:02:18.625Z,101269.72
2022-10-22T23:04:46.570Z,101271.66
2022-10-22T23:07:14.071Z,101272.75
2022-10-22T23:09:42.950Z,101270.38
2022-10-22T23:12:10.554Z,101269.50
2022-10-22T23:14:37.985Z,101267.97
2022-10-22T23:17:05.393Z,101270.72
2022-10-22T23:19:32.891Z,101275.28
2022-10-22T23:22:00.875Z,101271.91
2022-10-22T23:24:30.310Z,101280.78
2022-10-22T23:27:02.790Z,101287.13
2022-10-22T23:29:32.353Z,101285.59
2022-10-22T23:32:02.397Z,101274.31
2022-10-22T23:34:31.892Z,101284.16
2022-10-22T23:37:00.467Z,101286.06
2022-10-22T23:39:29.511Z,101288.81
2022-10-22T23:41:57.138Z,101277.59
2022-10-22T23:44:26.609Z,101280.44
2022-10-22T23:46:55.137Z,101277.13
2022-10-22T23:49:22.600Z,101279.88
2022-10-22T23:51:49.991Z,101288.00
2022-10-22T23:54:17.793Z,101281.16
2022-10-22T23:56:45.383Z,101284.88
